Time;durP1;ratioP1;P1;durP2;ratioP2;P2;SDS_P1;SDS_P2;PMS_P1;PMS_P2;Temp;Humidity;BMP_temperature;BMP_pressure;BME280_temperature;BME280_humidity;BME280_pressure;Samples;Min_cycle;Max_cycle;Signal;HPM_P1;HPM_P2
2022/11/28 00:01:55;;;;;;;6.55;4.13;;;9.00;99.90;;;;;;5073759;28;20040;-79
2022/11/28 00:04:21;;;;;;;7.68;5.43;;;9.00;99.90;;;;;;5079383;28;20028;-79
2022/11/28 00:06:49;;;;;;;6.72;4.65;;;9.00;99.90;;;;;;5075944;28;20020;-79
2022/11/28 00:09:17;;;;;;;6.68;5.10;;;9.00;99.90;;;;;;5085540;28;20020;-82
2022/11/28 00:11:44;;;;;;;10.25;6.25;;;9.10;99.90;;;;;;5080453;28;20097;-81
2022/11/28 00:14:10;;;;;;;14.20;7.63;;;9.00;99.90;;;;;;5076722;28;20022;-80
2022/11/28 00:16:36;;;;;;;10.68;6.60;;;9.00;99.90;;;;;;5081343;28;20532;-79
2022/11/28 00:19:03;;;;;;;14.45;7.30;;;9.00;99.90;;;;;;5079363;28;20108;-79
2022/11/28 00:21:30;;;;;;;13.18;8.07;;;8.90;99.90;;;;;;5071032;28;20055;-79
2022/11/28 00:23:56;;;;;;;15.15;8.05;;;8.90;99.90;;;;;;5082299;28;20028;-79
2022/11/28 00:26:30;;;;;;;13.50;8.57;;;9.00;99.90;;;;;;5086355;28;20034;-79
2022/11/28 00:28:57;;;;;;;15.02;9.57;;;8.90;99.90;;;;;;5080335;28;20124;-79
2022/11/28 00:31:28;;;;;;;14.60;8.80;;;9.00;99.90;;;;;;5076347;28;20028;-79
2022/11/28 00:33:54;;;;;;;17.45;9.27;;;9.00;99.90;;;;;;5086711;28;20149;-78
2022/11/28 00:36:21;;;;;;;15.13;9.52;;;9.00;99.90;;;;;;5080843;28;20505;-79
2022/11/28 00:38:47;;;;;;;14.30;9.13;;;9.00;99.90;;;;;;5076706;28;20037;-79
2022/11/28 00:41:15;;;;;;;14.90;9.30;;;9.00;99.90;;;;;;5076141;28;20073;-79
2022/11/28 00:43:43;;;;;;;14.15;9.23;;;9.00;99.90;;;;;;5081620;28;20020;-79
2022/11/28 00:46:10;;;;;;;14.45;8.95;;;8.90;99.90;;;;;;5074080;28;20099;-79
2022/11/28 00:48:36;;;;;;;12.00;8.27;;;8.90;99.90;;;;;;5078916;28;20589;-79
2022/11/28 00:51:07;;;;;;;10.43;7.35;;;8.90;99.90;;;;;;5077660;28;20544;-79
2022/11/28 00:53:33;;;;;;;12.05;8.35;;;8.90;99.90;;;;;;5073643;28;20035;-78
2022/11/28 00:55:58;;;;;;;11.50;8.25;;;8.90;99.90;;;;;;5081596;28;20031;-79
2022/11/28 00:58:24;;;;;;;12.20;7.70;;;8.90;99.90;;;;;;5073973;28;20055;-79
2022/11/28 01:00:50;;;;;;;12.77;8.38;;;9.00;99.90;;;;;;5076238;28;20029;-79
2022/11/28 01:03:15;;;;;;;13.65;8.20;;;8.90;99.90;;;;;;5070086;28;20028;-79
2022/11/28 01:05:42;;;;;;;12.98;8.23;;;8.80;99.90;;;;;;5084699;28;20533;-79
2022/11/28 01:08:09;;;;;;;10.50;7.45;;;8.90;99.90;;;;;;5084913;28;20028;-79
2022/11/28 01:10:42;;;;;;;11.23;7.72;;;8.90;99.90;;;;;;5076813;28;20031;-79
2022/11/28 01:13:09;;;;;;;10.93;7.22;;;8.80;99.90;;;;;;5077886;28;20614;-79
2022/11/28 01:15:35;;;;;;;10.00;6.85;;;8.90;99.90;;;;;;5083966;28;20023;-79
2022/11/28 01:18:01;;;;;;;10.70;7.20;;;8.90;99.90;;;;;;5085169;28;20028;-79
2022/11/28 01:20:28;;;;;;;10.00;6.75;;;8.90;99.90;;;;;;5077585;28;20614;-79
2022/11/28 01:22:53;;;;;;;10.80;6.75;;;8.90;99.90;;;;;;5078004;28;20033;-79
2022/11/28 01:25:19;;;;;;;9.20;6.50;;;8.90;99.90;;;;;;5083790;28;20398;-79
2022/11/28 01:27:45;;;;;;;9.75;6.75;;;8.90;99.90;;;;;;5084716;28;20507;-78
2022/11/28 01:30:11;;;;;;;9.32;5.97;;;8.90;99.90;;;;;;5077693;28;20551;-79
2022/11/28 01:32:38;;;;;;;6.70;5.55;;;8.80;99.90;;;;;;5090518;28;20513;-79
2022/11/28 01:35:04;;;;;;;7.43;5.57;;;8.90;99.90;;;;;;5079038;28;20020;-79
2022/11/28 01:37:30;;;;;;;9.25;5.97;;;8.90;99.90;;;;;;5077799;28;20032;-79
2022/11/28 01:39:56;;;;;;;10.52;6.88;;;8.80;99.90;;;;;;5083485;28;20029;-79
2022/11/28 01:42:22;;;;;;;9.95;6.97;;;8.80;99.90;;;;;;5084338;28;20035;-79
2022/11/28 01:44:47;;;;;;;10.40;7.05;;;8.80;99.90;;;;;;5079725;28;20416;-79
2022/11/28 01:47:16;;;;;;;11.23;6.93;;;8.70;99.90;;;;;;5078181;28;20577;-79
2022/11/28 01:49:43;;;;;;;14.65;7.75;;;8.70;99.90;;;;;;5081905;28;20028;-79
2022/11/28 01:52:13;;;;;;;11.15;6.53;;;8.70;99.90;;;;;;5084574;28;20032;-79
2022/11/28 01:54:42;;;;;;;9.93;6.60;;;9.00;99.90;;;;;;5070750;28;20028;-79
2022/11/28 01:57:12;;;;;;;8.75;5.30;;;9.30;99.90;;;;;;5084331;28;20021;-79
2022/11/28 01:59:43;;;;;;;6.13;4.13;;;9.50;99.90;;;;;;5076796;28;20052;-79
2022/11/28 02:02:16;;;;;;;5.45;3.00;;;9.70;99.90;;;;;;5084690;28;20024;-79
2022/11/28 02:04:44;;;;;;;7.47;3.03;;;9.90;99.90;;;;;;5083313;28;20016;-78
2022/11/28 02:07:10;;;;;;;4.15;2.38;;;10.10;99.90;;;;;;5077178;28;20028;-79
2022/11/28 02:09:36;;;;;;;4.00;2.17;;;10.00;99.90;;;;;;5076641;28;20683;-79
2022/11/28 02:12:18;;;;;;;1.95;1.55;;;10.10;99.90;;;;;;5082706;28;20021;-79
2022/11/28 02:14:54;;;;;;;2.72;1.83;;;10.00;99.90;;;;;;5072453;28;20032;-79
2022/11/28 02:17:34;;;;;;;2.40;1.52;;;10.00;99.90;;;;;;5081500;28;20024;-79
2022/11/28 02:20:48;;;;;;;2.85;1.55;;;9.90;99.90;;;;;;5084462;28;20021;-79
2022/11/28 02:23:29;;;;;;;3.15;1.60;;;9.90;99.90;;;;;;5074666;28;20533;-79
2022/11/28 02:26:24;;;;;;;1.70;1.50;;;9.90;99.90;;;;;;5084403;28;20162;-79
2022/11/28 02:29:08;;;;;;;3.67;1.67;;;9.80;99.90;;;;;;5076572;28;20048;-79
2022/11/28 02:32:00;;;;;;;1.83;1.67;;;9.80;99.90;;;;;;5089600;28;20032;-79
2022/11/28 02:34:34;;;;;;;;;;;9.80;99.90;;;;;;5005302;28;20037;-79
2022/11/28 02:37:07;;;;;;;4.32;1.63;;;9.70;99.90;;;;;;5000187;28;19906;-79
2022/11/28 02:39:54;;;;;;;2.58;1.60;;;9.70;99.90;;;;;;4995840;28;20049;-79
2022/11/28 02:42:34;;;;;;;3.90;1.65;;;9.60;99.90;;;;;;4995087;28;20069;-79
2022/11/28 02:45:31;;;;;;;2.15;1.60;;;9.60;99.90;;;;;;4998423;28;20097;-79
2022/11/28 02:48:03;;;;;;;2.63;1.75;;;9.50;99.90;;;;;;4995734;28;20610;-79
2022/11/28 02:50:35;;;;;;;2.28;1.50;;;9.40;99.90;;;;;;5008357;28;20034;-79
2022/11/28 02:53:15;;;;;;;5.10;1.75;;;9.40;99.90;;;;;;4992215;28;20030;-79
2022/11/28 02:55:42;;;;;;;2.60;1.33;;;9.40;99.90;;;;;;4998917;28;20037;-80
2022/11/28 02:58:10;;;;;;;3.17;1.48;;;9.40;99.90;;;;;;5009968;28;20112;-80
2022/11/28 03:00:39;;;;;;;2.67;1.40;;;9.40;99.90;;;;;;5007582;28;20110;-80
2022/11/28 03:03:22;;;;;;;4.80;1.63;;;9.30;99.90;;;;;;4992381;28;20618;-79
2022/11/28 03:05:57;;;;;;;4.20;1.67;;;9.30;99.90;;;;;;5000132;28;20042;-79
2022/11/28 03:08:50;;;;;;;3.47;1.55;;;9.30;99.90;;;;;;4998840;28;20130;-79
2022/11/28 03:11:27;;;;;;;2.17;1.48;;;9.30;99.90;;;;;;5043167;28;20028;-79
2022/11/28 03:14:04;;;;;;;4.20;1.80;;;9.20;99.90;;;;;;5081613;28;20093;-79
2022/11/28 03:17:13;;;;;;;2.28;1.30;;;9.20;99.90;;;;;;5092144;28;20048;-79
2022/11/28 03:20:01;;;;;;;2.28;1.20;;;9.20;99.90;;;;;;5045545;28;20131;-80
2022/11/28 03:22:45;;;;;;;3.00;1.83;;;9.20;99.90;;;;;;4983313;28;20061;-79
2022/11/28 03:25:21;;;;;;;2.38;1.10;;;9.20;99.90;;;;;;4959984;28;20031;-79
2022/11/28 03:27:54;;;;;;;1.65;0.98;;;9.20;99.90;;;;;;4985353;28;20038;-79
2022/11/28 03:30:31;;;;;;;2.72;0.98;;;9.20;99.90;;;;;;4981031;28;20061;-79
2022/11/28 03:32:59;;;;;;;2.95;1.10;;;9.10;99.90;;;;;;4983123;28;20042;-79
2022/11/28 03:35:31;;;;;;;4.10;1.15;;;9.10;99.90;;;;;;4983345;28;20077;-79
2022/11/28 03:38:03;;;;;;;2.33;1.17;;;9.20;99.90;;;;;;4978990;28;20077;-80
2022/11/28 03:40:35;;;;;;;1.92;1.00;;;9.20;99.90;;;;;;4959933;28;20067;-79
2022/11/28 03:43:04;;;;;;;2.67;1.10;;;9.20;99.90;;;;;;4965799;28;20030;-79
2022/11/28 03:45:45;;;;;;;1.73;1.10;;;9.10;99.90;;;;;;4978312;28;20054;-79
2022/11/28 03:48:31;;;;;;;1.50;1.23;;;9.10;99.90;;;;;;4981725;28;20034;-79
2022/11/28 03:51:14;;;;;;;1.60;1.08;;;9.10;99.90;;;;;;4999423;28;20038;-79
2022/11/28 03:53:54;;;;;;;2.97;1.00;;;9.20;99.90;;;;;;4988223;28;20026;-79
2022/11/28 03:56:56;;;;;;;2.05;1.10;;;9.10;99.90;;;;;;5001390;28;20089;-80
2022/11/28 03:59:31;;;;;;;4.82;1.55;;;9.10;99.90;;;;;;5045132;28;20132;-79
2022/11/28 04:02:03;;;;;;;1.98;0.95;;;9.10;99.90;;;;;;5079674;28;20036;-79
2022/11/28 04:04:35;;;;;;;3.10;1.15;;;9.10;99.90;;;;;;5081950;28;20098;-79
2022/11/28 04:07:27;;;;;;;;;;;9.10;99.90;;;;;;5086184;28;20120;-79
2022/11/28 04:10:08;;;;;;;2.40;1.00;;;9.10;99.90;;;;;;5032517;28;19975;-79
2022/11/28 04:12:36;;;;;;;;;;;9.10;99.90;;;;;;5039901;28;20199;-79
2022/11/28 04:15:16;;;;;;;1.27;1.10;;;9.10;99.90;;;;;;5026841;28;19905;-79
2022/11/28 04:17:59;;;;;;;2.88;1.30;;;9.10;99.90;;;;;;5043487;28;20040;-80
2022/11/28 04:20:31;;;;;;;1.67;1.20;;;9.10;99.90;;;;;;5022430;28;20056;-80
2022/11/28 04:23:08;;;;;;;4.45;1.13;;;9.00;99.90;;;;;;5047613;28;20068;-80
2022/11/28 04:25:37;;;;;;;1.60;1.00;;;9.00;99.90;;;;;;5041289;28;20025;-80
2022/11/28 04:28:10;;;;;;;2.42;1.30;;;9.00;99.90;;;;;;5045453;28;20040;-80
2022/11/28 04:30:36;;;;;;;2.20;1.02;;;9.10;99.90;;;;;;5030556;28;20112;-80
2022/11/28 04:33:08;;;;;;;1.25;1.10;;;9.00;99.90;;;;;;5043322;28;20033;-80
2022/11/28 04:35:41;;;;;;;1.30;1.15;;;9.10;99.90;;;;;;5043441;28;20029;-80
2022/11/28 04:38:10;;;;;;;1.35;1.08;;;9.00;99.90;;;;;;5030466;28;20028;-80
2022/11/28 04:40:54;;;;;;;2.45;1.38;;;9.00;99.90;;;;;;5043481;28;20092;-80
2022/11/28 04:43:29;;;;;;;2.03;1.00;;;9.00;99.90;;;;;;5023639;28;20395;-80
2022/11/28 04:46:02;;;;;;;1.40;1.20;;;9.00;99.90;;;;;;5053774;28;20037;-80
2022/11/28 04:48:27;;;;;;;1.33;1.00;;;9.00;99.90;;;;;;5072232;28;20029;-80
2022/11/28 04:51:05;;;;;;;1.83;1.00;;;9.00;99.90;;;;;;5085475;28;20520;-80
2022/11/28 04:53:35;;;;;;;2.00;1.05;;;9.00;99.90;;;;;;5072574;28;20019;-80
2022/11/28 04:56:10;;;;;;;0.75;0.75;;;9.00;99.90;;;;;;5084323;28;20104;-79
2022/11/28 04:58:40;;;;;;;1.27;0.90;;;9.00;99.90;;;;;;5076424;28;20029;-80
2022/11/28 05:01:10;;;;;;;0.70;0.70;;;8.90;99.90;;;;;;5082488;28;20028;-80
2022/11/28 05:03:37;;;;;;;5.45;1.42;;;8.90;99.90;;;;;;5084279;28;20050;-79
2022/11/28 05:06:03;;;;;;;0.93;0.90;;;8.90;99.90;;;;;;5082113;28;20024;-80
2022/11/28 05:08:29;;;;;;;0.90;0.90;;;8.90;99.90;;;;;;5078258;28;20024;-80
2022/11/28 05:10:55;;;;;;;1.05;0.80;;;8.80;99.90;;;;;;5081723;28;20040;-80
2022/11/28 05:13:20;;;;;;;1.25;0.88;;;8.90;99.90;;;;;;5084902;28;20024;-79
2022/11/28 05:15:46;;;;;;;1.55;1.13;;;8.80;99.90;;;;;;5081339;28;20028;-79
2022/11/28 05:18:12;;;;;;;1.58;1.10;;;8.90;99.90;;;;;;5077819;28;20383;-80
2022/11/28 05:20:38;;;;;;;1.73;1.10;;;8.90;99.90;;;;;;5082195;28;20067;-80
2022/11/28 05:23:03;;;;;;;4.35;1.48;;;8.80;99.90;;;;;;5083595;28;20555;-80
2022/11/28 05:25:29;;;;;;;1.48;1.25;;;8.90;99.90;;;;;;5081205;28;20028;-80
2022/11/28 05:27:55;;;;;;;3.20;1.10;;;8.90;99.90;;;;;;5076462;28;20527;-80
2022/11/28 05:30:20;;;;;;;3.90;1.33;;;8.80;99.90;;;;;;5081054;28;20181;-80
2022/11/28 05:32:46;;;;;;;2.53;1.25;;;8.80;99.90;;;;;;5088601;28;20024;-80
2022/11/28 05:35:12;;;;;;;1.05;1.00;;;8.80;99.90;;;;;;5081097;28;20035;-80
2022/11/28 05:37:38;;;;;;;4.88;1.30;;;8.80;99.90;;;;;;5077718;28;20034;-80
2022/11/28 05:40:05;;;;;;;3.28;1.40;;;8.80;99.90;;;;;;5081944;28;20024;-80
2022/11/28 05:42:35;;;;;;;3.53;1.67;;;8.80;99.90;;;;;;5087222;28;20127;-80
2022/11/28 05:45:01;;;;;;;2.83;1.35;;;8.80;99.90;;;;;;5081085;28;20036;-80
2022/11/28 05:47:30;;;;;;;3.22;1.70;;;8.80;99.90;;;;;;5088546;28;20028;-80
2022/11/28 05:49:56;;;;;;;3.28;1.80;;;8.80;99.90;;;;;;5078900;28;20025;-80
2022/11/28 05:52:22;;;;;;;4.03;1.70;;;8.80;99.90;;;;;;5083508;28;20035;-80
2022/11/28 05:54:47;;;;;;;3.78;1.50;;;8.80;99.90;;;;;;5082475;28;20078;-80
2022/11/28 05:57:13;;;;;;;2.80;1.70;;;8.80;99.90;;;;;;5074940;28;20527;-80
2022/11/28 05:59:39;;;;;;;6.53;1.65;;;8.80;99.90;;;;;;5075863;28;20508;-80
2022/11/28 06:02:04;;;;;;;4.93;1.75;;;8.80;99.90;;;;;;5086725;28;20100;-80
2022/11/28 06:04:30;;;;;;;3.35;1.50;;;8.80;99.90;;;;;;5082318;28;20459;-80
2022/11/28 06:06:56;;;;;;;4.68;1.20;;;8.70;99.90;;;;;;5076185;28;20031;-80
2022/11/28 06:09:22;;;;;;;2.63;1.70;;;8.80;99.90;;;;;;5079564;28;20473;-80
2022/11/28 06:11:47;;;;;;;3.50;1.60;;;8.70;99.90;;;;;;5082858;28;20414;-80
2022/11/28 06:14:13;;;;;;;3.88;1.52;;;8.70;99.90;;;;;;5082096;28;20065;-80
2022/11/28 06:16:41;;;;;;;5.07;1.63;;;8.70;99.90;;;;;;5078074;28;20049;-80
2022/11/28 06:19:10;;;;;;;4.47;1.73;;;8.70;99.90;;;;;;5079446;28;20804;-80
2022/11/28 06:21:35;;;;;;;3.35;1.70;;;8.70;99.90;;;;;;5084237;28;20051;-80
2022/11/28 06:24:01;;;;;;;2.80;1.55;;;8.70;99.90;;;;;;5083012;28;20103;-80
2022/11/28 06:26:28;;;;;;;5.60;1.60;;;8.70;99.90;;;;;;5077075;28;20081;-80
2022/11/28 06:28:56;;;;;;;4.60;1.45;;;8.70;99.90;;;;;;5080219;28;20040;-80
2022/11/28 06:31:26;;;;;;;3.45;1.50;;;8.70;99.90;;;;;;5092709;28;20026;-80
2022/11/28 06:33:52;;;;;;;4.35;1.50;;;8.80;99.90;;;;;;5082430;28;20028;-80
2022/11/28 06:36:19;;;;;;;3.65;1.73;;;8.80;99.90;;;;;;5087997;28;20444;-80
2022/11/28 06:38:46;;;;;;;4.65;2.00;;;8.70;99.90;;;;;;5087255;28;20015;-80
2022/11/28 06:41:14;;;;;;;4.97;1.55;;;8.70;99.90;;;;;;5080830;28;20028;-80
2022/11/28 06:43:40;;;;;;;4.68;1.60;;;8.70;99.90;;;;;;5093475;28;20044;-80
2022/11/28 06:46:18;;;;;;;2.75;1.30;;;8.70;99.90;;;;;;5080149;28;20520;-80
2022/11/28 06:48:45;;;;;;;7.10;1.55;;;8.70;99.90;;;;;;5079711;28;20028;-80
2022/11/28 06:51:12;;;;;;;4.82;1.58;;;8.70;99.90;;;;;;5086661;28;20033;-80
2022/11/28 06:53:37;;;;;;;3.50;1.80;;;8.70;99.90;;;;;;5087741;28;20016;-80
2022/11/28 06:56:08;;;;;;;4.70;1.60;;;8.60;99.90;;;;;;5082263;28;20401;-80
2022/11/28 06:58:35;;;;;;;8.45;1.90;;;8.60;99.90;;;;;;5078861;28;20123;-80
2022/11/28 07:01:09;;;;;;;5.82;1.75;;;8.60;99.90;;;;;;5102746;28;20051;-80
2022/11/28 07:03:36;;;;;;;4.75;1.70;;;8.60;99.90;;;;;;5080032;28;20051;-80
2022/11/28 07:06:03;;;;;;;6.53;1.40;;;8.60;99.90;;;;;;5084493;28;20109;-80
2022/11/28 07:08:30;;;;;;;4.10;1.38;;;8.60;99.90;;;;;;5087160;28;20025;-80
2022/11/28 07:10:56;;;;;;;4.00;1.23;;;8.60;99.90;;;;;;5082888;28;20030;-80
2022/11/28 07:13:23;;;;;;;4.05;1.73;;;8.50;99.90;;;;;;5080262;28;20063;-81
2022/11/28 07:15:52;;;;;;;4.22;1.80;;;8.60;99.90;;;;;;5092690;28;20031;-80
2022/11/28 07:18:18;;;;;;;5.40;1.40;;;8.50;99.90;;;;;;5080344;28;20067;-80
2022/11/28 07:20:43;;;;;;;8.45;2.90;;;8.50;99.90;;;;;;5083424;28;20055;-80
2022/11/28 07:23:09;;;;;;;6.63;3.10;;;8.50;99.90;;;;;;5087186;28;20029;-84
2022/11/28 07:25:35;;;;;;;8.90;2.90;;;8.60;99.90;;;;;;5083265;28;20024;-82
2022/11/28 07:28:00;;;;;;;10.02;3.45;;;8.60;99.90;;;;;;5075504;28;20639;-82
2022/11/28 07:30:26;;;;;;;5.65;3.40;;;8.60;99.90;;;;;;5084612;28;20509;-82
2022/11/28 07:32:52;;;;;;;8.38;3.58;;;8.50;99.90;;;;;;5089337;28;20028;-82
2022/11/28 07:35:17;;;;;;;9.82;3.05;;;8.50;99.90;;;;;;5084748;28;20105;-82
2022/11/28 07:37:43;;;;;;;7.97;3.03;;;8.50;99.90;;;;;;5079844;28;20036;-82
2022/11/28 07:40:09;;;;;;;8.07;2.97;;;8.50;99.90;;;;;;5082467;28;20078;-82
2022/11/28 07:42:35;;;;;;;7.78;2.92;;;8.50;99.90;;;;;;5086069;28;20037;-82
2022/11/28 07:45:01;;;;;;;11.23;3.35;;;8.50;99.90;;;;;;5078154;28;20509;-82
2022/11/28 07:47:27;;;;;;;6.15;2.75;;;8.50;99.90;;;;;;5080345;28;20040;-82
2022/11/28 07:49:53;;;;;;;7.28;2.10;;;8.50;99.90;;;;;;5083688;28;20047;-81
2022/11/28 07:52:18;;;;;;;4.63;2.00;;;8.50;99.90;;;;;;5083621;28;20482;-81
2022/11/28 07:54:44;;;;;;;6.20;2.17;;;8.50;99.90;;;;;;5085208;28;20032;-81
2022/11/28 07:57:10;;;;;;;4.00;2.33;;;8.60;99.90;;;;;;5073402;28;20035;-80
2022/11/28 07:59:35;;;;;;;6.75;1.75;;;8.60;99.90;;;;;;5083962;28;20564;-80
2022/11/28 08:02:01;;;;;;;9.43;2.95;;;8.60;99.90;;;;;;5084083;28;20397;-79
2022/11/28 08:04:26;;;;;;;5.28;2.35;;;8.60;99.90;;;;;;5081175;28;20380;-80
2022/11/28 08:06:52;;;;;;;6.72;2.38;;;8.60;99.90;;;;;;5079116;28;20454;-80
2022/11/28 08:09:18;;;;;;;4.97;2.95;;;8.60;99.90;;;;;;5072406;28;20047;-81
2022/11/28 08:11:44;;;;;;;4.88;2.50;;;8.60;99.90;;;;;;5076910;28;20025;-81
2022/11/28 08:14:09;;;;;;;7.32;2.95;;;8.60;99.90;;;;;;5073873;28;20596;-82
2022/11/28 08:16:35;;;;;;;7.28;3.80;;;8.60;99.90;;;;;;5086402;28;20027;-81
2022/11/28 08:19:02;;;;;;;10.77;3.47;;;8.60;99.90;;;;;;5073470;28;20119;-79
2022/11/28 08:21:31;;;;;;;4.90;2.63;;;8.60;99.90;;;;;;5076850;28;20021;-82
2022/11/28 08:24:00;;;;;;;5.60;2.28;;;8.60;99.90;;;;;;5071677;28;20036;-80
2022/11/28 08:26:26;;;;;;;5.97;2.15;;;8.60;99.90;;;;;;5083547;28;20521;-82
2022/11/28 08:28:53;;;;;;;4.25;2.10;;;8.60;99.90;;;;;;5079050;28;20040;-82
2022/11/28 08:31:21;;;;;;;3.10;1.65;;;8.70;99.90;;;;;;5081571;28;20024;-82
2022/11/28 08:33:49;;;;;;;5.95;1.85;;;8.70;99.90;;;;;;5071245;28;20031;-80
2022/11/28 08:36:18;;;;;;;3.75;2.30;;;8.60;99.90;;;;;;5075005;28;20028;-80
2022/11/28 08:38:45;;;;;;;5.45;2.05;;;8.70;99.90;;;;;;5072879;28;20028;-82
2022/11/28 08:41:12;;;;;;;4.32;1.92;;;8.70;99.90;;;;;;5075077;28;20024;-82
2022/11/28 08:43:39;;;;;;;3.88;2.03;;;8.70;99.90;;;;;;5083971;28;20035;-80
2022/11/28 08:46:08;;;;;;;2.47;1.38;;;8.70;99.90;;;;;;5077082;28;20028;-80
2022/11/28 08:48:34;;;;;;;4.22;1.60;;;8.70;99.90;;;;;;5083368;28;20384;-80
2022/11/28 08:51:00;;;;;;;4.07;1.83;;;8.80;99.90;;;;;;5083349;28;20059;-79
2022/11/28 08:53:26;;;;;;;5.43;3.40;;;8.80;99.90;;;;;;5073225;28;20075;-79
2022/11/28 08:55:52;;;;;;;8.30;4.70;;;8.80;99.90;;;;;;5078035;28;20509;-81
2022/11/28 08:58:18;;;;;;;6.40;3.53;;;8.80;99.90;;;;;;5084332;28;20024;-82
2022/11/28 09:00:43;;;;;;;6.03;3.53;;;8.90;99.90;;;;;;5079780;28;20401;-82
2022/11/28 09:03:14;;;;;;;5.75;3.50;;;8.90;99.90;;;;;;5080378;28;20032;-81
2022/11/28 09:05:41;;;;;;;6.07;3.25;;;8.90;99.90;;;;;;5093885;28;20663;-81
2022/11/28 09:08:07;;;;;;;3.67;2.13;;;8.90;99.90;;;;;;5081441;28;20115;-82
2022/11/28 09:10:36;;;;;;;5.00;2.67;;;8.90;99.90;;;;;;5074813;28;20061;-79
2022/11/28 09:13:02;;;;;;;5.63;3.30;;;8.90;99.90;;;;;;5077401;28;20051;-82
2022/11/28 09:15:28;;;;;;;5.75;3.67;;;8.90;99.90;;;;;;5074713;28;20090;-80
2022/11/28 09:17:54;;;;;;;5.65;3.63;;;9.00;99.90;;;;;;5075619;28;20082;-82
2022/11/28 09:20:20;;;;;;;4.25;2.92;;;9.00;99.90;;;;;;5072443;28;20425;-82
2022/11/28 09:22:46;;;;;;;4.95;3.00;;;9.00;99.90;;;;;;5081118;28;20024;-82
2022/11/28 09:25:12;;;;;;;5.47;3.33;;;9.00;99.90;;;;;;5071854;28;20524;-82
2022/11/28 09:27:38;;;;;;;3.15;2.20;;;9.00;99.90;;;;;;5094140;28;20086;-82
2022/11/28 09:30:05;;;;;;;3.60;2.28;;;9.10;99.90;;;;;;5069573;28;20591;-82
2022/11/28 09:32:31;;;;;;;5.82;3.70;;;9.10;99.90;;;;;;5075191;28;20029;-82
2022/11/28 09:34:56;;;;;;;9.90;4.38;;;9.10;99.90;;;;;;5070078;28;20016;-81
2022/11/28 09:37:22;;;;;;;18.42;12.88;;;9.20;99.90;;;;;;5074097;28;20515;-81
2022/11/28 09:39:48;;;;;;;10.07;6.65;;;9.20;99.90;;;;;;5068590;28;20611;-81
2022/11/28 09:42:20;;;;;;;8.32;4.30;;;9.20;99.90;;;;;;5085624;28;20546;-81
2022/11/28 09:45:00;;;;;;;5.45;3.20;;;9.30;99.90;;;;;;5069763;28;20115;-81
2022/11/28 09:47:31;;;;;;;4.93;3.80;;;9.30;99.90;;;;;;5075660;28;20074;-81
2022/11/28 09:49:57;;;;;;;4.63;3.28;;;9.40;99.90;;;;;;5089918;28;20027;-81
2022/11/28 09:52:43;;;;;;;4.75;3.28;;;9.40;99.90;;;;;;5099213;28;20033;-80
2022/11/28 09:55:30;;;;;;;16.85;10.43;;;9.40;99.90;;;;;;5069693;28;20029;-81
2022/11/28 09:57:56;;;;;;;26.95;17.25;;;9.40;99.90;;;;;;5068042;28;20039;-81
2022/11/28 10:00:27;;;;;;;27.38;17.05;;;9.50;99.90;;;;;;5085388;28;20047;-81
2022/11/28 10:03:02;;;;;;;22.00;13.38;;;9.50;99.90;;;;;;5078992;28;20029;-81
2022/11/28 10:05:42;;;;;;;31.15;17.48;;;9.50;99.90;;;;;;5073101;28;20089;-81
2022/11/28 10:08:30;;;;;;;24.75;15.60;;;9.50;99.90;;;;;;5075118;28;20064;-81
2022/11/28 10:10:55;;;;;;;28.70;16.15;;;9.60;99.90;;;;;;5078526;28;20020;-81
2022/11/28 10:13:50;;;;;;;21.52;13.23;;;9.60;99.90;;;;;;5072548;28;20111;-81
2022/11/28 10:16:46;;;;;;;12.15;6.65;;;9.60;99.90;;;;;;5019933;28;20948;-81
2022/11/28 10:19:19;;;;;;;9.73;5.95;;;9.60;99.90;;;;;;5015260;28;20038;-81
2022/11/28 10:21:52;;;;;;;7.57;4.35;;;9.70;99.90;;;;;;5017392;28;20108;-81
2022/11/28 10:24:40;;;;;;;9.77;4.25;;;9.80;99.90;;;;;;5014880;28;20084;-81
2022/11/28 10:27:06;;;;;;;8.23;3.75;;;9.80;99.90;;;;;;5003305;28;20038;-81
2022/11/28 10:29:46;;;;;;;7.60;4.30;;;9.80;99.90;;;;;;5011382;28;20046;-81
2022/11/28 10:32:23;;;;;;;11.15;5.05;;;9.80;99.90;;;;;;5021668;28;20030;-80
2022/11/28 10:34:58;;;;;;;16.55;9.65;;;9.80;99.90;;;;;;5021187;28;20056;-80
2022/11/28 10:37:29;;;;;;;12.68;8.50;;;9.80;99.90;;;;;;5022320;28;20029;-82
2022/11/28 10:40:15;;;;;;;6.45;4.53;;;9.90;99.90;;;;;;5026814;28;20109;-81
2022/11/28 10:42:45;;;;;;;7.75;3.80;;;9.80;99.90;;;;;;5025145;28;20033;-81
2022/11/28 10:45:26;;;;;;;7.70;3.47;;;9.80;99.90;;;;;;5006922;28;20030;-81
2022/11/28 10:48:11;;;;;;;7.93;2.92;;;9.90;99.90;;;;;;5031259;28;20127;-81
2022/11/28 10:51:01;;;;;;;6.25;2.78;;;9.90;99.90;;;;;;5022944;28;20052;-81
2022/11/28 10:53:41;;;;;;;7.40;2.80;;;10.00;99.90;;;;;;5048992;28;20123;-81
2022/11/28 10:56:09;;;;;;;7.60;2.85;;;10.00;99.90;;;;;;5075523;28;20488;-81
2022/11/28 10:58:44;;;;;;;6.75;2.80;;;10.00;99.90;;;;;;5078208;28;20057;-81
2022/11/28 11:01:11;;;;;;;6.85;3.25;;;10.10;99.90;;;;;;5086123;28;20039;-81
2022/11/28 11:03:38;;;;;;;7.82;2.95;;;10.10;99.90;;;;;;5070888;28;20035;-80
2022/11/28 11:06:05;;;;;;;8.02;3.33;;;10.10;99.90;;;;;;5079227;28;20032;-80
2022/11/28 11:08:38;;;;;;;14.85;5.93;;;10.10;99.90;;;;;;5070638;28;20140;-80
2022/11/28 11:11:06;;;;;;;72.97;29.85;;;10.20;99.90;;;;;;5070948;28;20107;-80
2022/11/28 11:13:55;;;;;;;63.15;26.42;;;10.20;99.90;;;;;;5075256;28;20101;-81
2022/11/28 11:16:21;;;;;;;51.10;22.17;;;10.30;99.90;;;;;;5096942;28;20043;-80
2022/11/28 11:18:47;;;;;;;31.38;16.30;;;10.40;99.90;;;;;;5070859;28;20028;-80
2022/11/28 11:21:26;;;;;;;27.75;14.07;;;10.40;99.90;;;;;;5075673;28;20527;-80
2022/11/28 11:24:16;;;;;;;15.05;8.65;;;10.60;99.90;;;;;;5071176;28;20125;-79
2022/11/28 11:26:48;;;;;;;14.63;7.78;;;10.80;99.90;;;;;;5075312;28;20031;-80
2022/11/28 11:29:28;;;;;;;12.80;7.38;;;11.00;99.90;;;;;;5072122;28;20127;-79
2022/11/28 11:31:54;;;;;;;9.20;5.07;;;11.00;99.90;;;;;;5090786;28;20031;-80
2022/11/28 11:34:22;;;;;;;7.45;3.53;;;11.10;99.90;;;;;;5081448;28;20025;-80
2022/11/28 11:36:48;;;;;;;6.95;3.53;;;11.20;99.90;;;;;;5079527;28;20024;-80
2022/11/28 11:39:26;;;;;;;6.05;2.80;;;11.30;99.90;;;;;;5077227;28;20047;-79
2022/11/28 11:42:01;;;;;;;6.88;2.00;;;11.40;99.90;;;;;;5086566;28;20036;-80
2022/11/28 11:44:33;;;;;;;6.75;1.95;;;11.40;99.90;;;;;;5075527;28;20028;-79
2022/11/28 11:47:05;;;;;;;8.25;1.60;;;11.40;99.90;;;;;;5088005;28;20024;-80
2022/11/28 11:49:43;;;;;;;7.78;1.75;;;11.60;99.90;;;;;;5071988;28;20024;-79
2022/11/28 11:52:11;;;;;;;5.60;1.63;;;11.90;99.90;;;;;;5078735;28;20020;-80
2022/11/28 11:55:14;;;;;;;5.82;1.60;;;12.10;99.90;;;;;;5072699;28;20099;-80
2022/11/28 11:57:50;;;;;;;5.80;1.80;;;12.10;99.90;;;;;;5078886;28;20037;-80
2022/11/28 12:00:40;;;;;;;5.05;1.60;;;12.10;99.90;;;;;;5083275;28;20108;-80
2022/11/28 12:03:22;;;;;;;7.55;1.88;;;12.10;99.90;;;;;;5083429;28;20025;-80
2022/11/28 12:05:54;;;;;;;4.47;1.40;;;12.10;99.90;;;;;;5080590;28;20063;-80
2022/11/28 12:08:38;;;;;;;3.30;1.58;;;12.20;99.90;;;;;;5076437;28;20024;-80
2022/11/28 12:11:13;;;;;;;6.22;1.60;;;12.20;99.90;;;;;;5072084;28;20103;-80
2022/11/28 12:13:38;;;;;;;7.22;1.90;;;12.30;99.90;;;;;;5071742;28;20032;-80
2022/11/28 12:16:24;;;;;;;3.42;1.60;;;12.20;99.90;;;;;;5072303;28;20032;-80
2022/11/28 12:19:08;;;;;;;4.60;2.35;;;12.10;99.90;;;;;;5071913;28;20090;-80
2022/11/28 12:21:55;;;;;;;5.40;2.30;;;12.10;99.90;;;;;;5073630;28;20033;-80
2022/11/28 12:25:01;;;;;;;8.93;1.80;;;12.20;99.90;;;;;;5077935;28;20028;-80
2022/11/28 12:27:45;;;;;;;6.43;1.48;;;12.10;99.90;;;;;;5040524;28;20040;-80
2022/11/28 12:30:19;;;;;;;4.75;1.98;;;11.90;99.90;;;;;;5032810;28;20056;-80
2022/11/28 12:33:04;;;;;;;5.95;1.38;;;11.90;99.90;;;;;;5049051;28;20048;-80
2022/11/28 12:35:38;;;;;;;5.07;1.33;;;11.90;99.90;;;;;;5012977;28;20564;-80
2022/11/28 12:38:35;;;;;;;6.88;1.38;;;11.90;99.90;;;;;;5043250;28;20533;-80
2022/11/28 12:41:22;;;;;;;4.82;1.20;;;11.90;99.90;;;;;;5029082;28;20021;-81
2022/11/28 12:44:20;;;;;;;6.45;1.40;;;12.10;99.90;;;;;;5040250;28;20030;-81
2022/11/28 12:46:57;;;;;;;4.53;1.80;;;12.10;99.90;;;;;;5031866;28;20026;-81
2022/11/28 12:49:29;;;;;;;5.50;1.95;;;12.10;99.90;;;;;;5025972;28;20144;-80
2022/11/28 12:52:13;;;;;;;6.68;1.63;;;12.10;99.90;;;;;;5025567;28;20084;-80
2022/11/28 12:54:57;;;;;;;6.15;2.22;;;11.90;99.90;;;;;;5039899;28;20043;-81
2022/11/28 12:57:38;;;;;;;5.05;1.85;;;12.10;99.90;;;;;;5035513;28;20029;-83
2022/11/28 13:00:11;;;;;;;7.55;2.97;;;12.30;99.90;;;;;;5043806;28;20024;-82
2022/11/28 13:02:52;;;;;;;8.38;3.38;;;12.60;99.90;;;;;;5069707;28;20025;-82
2022/11/28 13:06:09;;;;;;;9.40;3.05;;;12.60;99.90;;;;;;5071427;28;20047;-82
2022/11/28 13:08:47;;;;;;;11.38;3.22;;;12.90;99.90;;;;;;5029504;28;20067;-82
2022/11/28 13:11:28;;;;;;;9.13;2.60;;;12.90;99.90;;;;;;5028403;28;20053;-83
2022/11/28 13:14:02;;;;;;;;;;;13.00;99.90;;;;;;5021411;28;20029;-83
2022/11/28 13:16:50;;;;;;;10.20;4.47;;;13.00;99.90;;;;;;5048181;28;19909;-83
2022/11/28 13:19:40;;;;;;;11.50;4.65;;;12.90;99.90;;;;;;5048711;28;20091;-83